ACT        NSW        VIC        QLD        SA        WA        TAS        NT        INFO        CALC            by VK5ZD

Past Date/Time: (dd/mm/yyyy hh:mm or blank for current data)    

  Atmospheric Gas Attenuation - ITU Rec 676-11   --------------- dB/100km ---------------
WA Stations Date Time Temp RH % AH g/m3 Dew Point Wind Direction Speed kph Gust kph Barometer mB Rainfall Since 9am 24GHz 47GHz 76GHz 122GHz 134GHz 241GHz
Albany 05/09 09:00 13.1 64 7.3 6.4 7 1013.1 0 16.8 24.0 35.0 91.6 82.4 282.2
Albany Airport 05/09 10:50 15.8 61 8.21 8.3 22 30 1016.6 0 18.7 24.8 37.4 98.1 91.2 313.5
Badgingarra 05/09 10:50 15.4 67 8.8 9.3 20 26 1013.1 0 19.9 25.7 39.8 104.4 99.0 340.7
Barimunya 05/09 10:50 26.2 20 4.92 1.5 22 30 1013.1 0 11.4 17.8 22.5 58.3 45.6 154.7
Barrow Island 05/09 10:50 24.1 63 13.78 16.6 28 32 1018.6 0 30.0 31.3 55.1 145.2 151.9 526.6
Beverley 05/09 09:00 13.2 88 10.1 11.3 0 1013.1 0 22.8 28.6 46.3 121.9 119.7 412.8
Bickley 05/09 10:50 14.2 68 8.3 8.4 15 30 1013.1 0 18.9 25.3 38.4 100.7 94.0 323.0
Boolgeeda 05/09 10:50 28 17 4.62 0.7 13 20 1013.1 0 10.7 17.2 21.2 54.8 41.8 141.5
Bridgetown 05/09 10:50 14.9 74 9.43 10.3 20 32 1016.1 0 21.3 27.0 42.7 112.2 108.2 373.0
Brookton 05/09 09:00 13.4 66 7.67 7.3 0 1013.1 0.1 17.6 24.5 36.3 95.1 86.8 297.7
Broome 05/09 10:50 29.9 44 13.27 16.3 17 24 1016.7 0 28.5 28.5 49.1 129.6 134.4 466.4
Bulga Downs 05/09 09:00 16.8 66 9.44 10.5 9 1020.9 0 21.2 26.7 42.0 110.2 106.2 366.0
Bunbury 05/09 10:50 16.7 83 11.79 13.8 20 30 1016.9 0 26.2 30.5 51.6 135.9 138.0 477.4
Busselton Airport 05/09 10:50 14.8 94 11.91 13.8 26 37 1016.1 0 26.6 31.3 53.4 140.6 143.2 495.1
Cape Leeuwin 05/09 10:50 15.2 89 11.55 13.4 46 59 1014.8 0.4 25.8 30.5 51.4 135.5 137.1 473.9
Cape Naturaliste 05/09 10:50 16.2 77 10.62 12.2 37 48 1015.9 0 23.8 28.6 46.9 123.4 122.4 422.8
Carnarvon 05/09 10:50 21.6 50 9.48 10.7 17 26 1021.8 0 21.1 25.4 39.7 104.2 100.4 346.5
Christmas Creek 05/09 10:50 28.2 19 5.22 2.4 19 24 1017.6 0 12.0 18.0 23.0 59.6 47.6 161.9
Christmas Island 05/09 10:50 26.1 73 17.87 20.9 28 41 1019 0 38.4 37.7 71.2 188.3 205.4 713.4
Collie East 05/09 10:50 15.8 68 9.15 9.9 15 19 1013.1 0 20.7 26.2 41.0 107.6 103.0 355.0
Coondewanna 05/09 10:50 26.1 19 4.65 0.7 20 33 1013.1 0 10.8 17.5 21.7 56.3 43.1 145.7
Cunderdin Airport 05/09 10:50 15.7 55 7.36 6.7 26 37 1020.1 0 16.9 23.7 34.4 90.0 80.9 277.4
Curtin 05/09 10:50 32.1 27 9.17 10.8 9 15 1015.7 0 19.9 22.0 33.7 88.5 84.4 291.6
Cygnet Bay 05/09 09:00 27.9 58 15.69 18.9 1017.9 0 33.7 33.1 60.2 158.9 169.8 589.8
Dalwallinu 05/09 10:50 15.9 59 7.99 7.9 11 20 1019.9 0 18.2 24.6 36.7 96.1 88.5 304.2
Derby 05/09 10:50 30.9 46 14.65 17.9 9 17 1016.5 0 31.3 30.3 53.8 141.9 149.8 520.4
Dwellingup 05/09 10:50 14.9 71 9.05 9.7 17 28 1017.8 0 20.5 26.5 41.3 108.3 103.3 355.8
Eliwana Airport 05/09 10:50 28 17 4.62 0.7 9 19 1013.1 0 10.7 17.2 21.2 54.8 41.8 141.5
Esperance 05/09 10:50 17.5 51 7.6 7.3 15 22 1020.1 0 17.3 23.6 34.5 90.3 82.0 281.4
Esperance Airport 05/09 10:50 16.3 60 8.32 8.5 19 20 1020.3 0 18.9 25.0 37.8 99.0 92.3 317.3
Eucla 05/09 10:50 17.6 50 7.5 7.1 17 28 1021.8 0 17.1 23.5 34.2 89.4 80.8 277.2
Fitzroy Crossing 05/09 10:50 34 24 9.01 10.6 9 17 1015.3 0 19.5 21.4 32.4 85.1 80.8 279.2
Forrest 05/09 10:50 17.5 47 7.01 6.1 1021.9 0 16.0 22.8 32.4 84.7 75.0 256.9
Fortescue Dave Forrest 05/09 10:50 27.9 20 5.41 2.9 20 32 1016.9 0 12.4 18.2 23.6 61.3 49.6 168.9
Garden Island 05/09 10:50 16.8 71 10.15 11.5 24 35 1018.3 0 22.7 27.7 44.7 117.5 115.4 398.1
Geraldton Airport 05/09 10:50 18.4 63 9.91 11.2 20 28 1020 0 22.1 26.9 42.9 112.8 110.0 379.6
Gerangamete (Cfa) 05/09 12:40 14.5 62 7.71 7.4 33 41 1013.1 1.6 17.7 24.3 36.0 94.2 86.1 295.3
Giles* 05/09 12:20 25.3 28 6.55 5.5 13 19 1018.9 0 14.8 20.2 27.9 72.8 63.1 215.8
Gingin Airport 05/09 10:50 17.1 56 8.15 8.3 20 28 1019.1 0 18.5 24.5 36.7 96.2 89.1 306.4
Golden Grove 05/09 10:50 19.3 43 7.13 6.4 19 30 1013.1 0 16.2 22.2 31.8 83.2 74.2 254.3
Gooseberry Hill 05/09 10:50 15.7 68 9.1 9.8 17 22 1013.1 0 20.6 26.1 40.8 107.2 102.5 353.1
Gudai-Darri Mine 05/09 10:50 27.6 19 5.05 1.9 20 32 1013.1 0 11.6 17.7 22.5 58.4 46.1 156.6
Halls Creek 05/09 12:20 33.5 21 7.68 8.2 9 19 1015 0 16.8 19.8 28.6 74.7 67.9 233.7
Hopetoun North 05/09 10:50 15.8 55 7.4 6.8 15 24 1019.2 0 16.9 23.7 34.5 90.2 81.2 278.5
Hyden 05/09 09:00 7.5 93 7.45 6.4 2 1013.1 0 17.4 25.8 38.2 100.1 90.6 310.3
Iron Bridge Mine 05/09 10:50 31.6 19 6.28 5.2 20 28 1013.1 0.2 14.0 18.5 25.0 65.1 55.5 190.1
Jacup 05/09 10:50 11.7 63 6.59 4.9 19 28 1019.4 0 15.4 23.5 33.1 86.5 75.2 256.8
Jandakot 05/09 10:50 17.1 61 8.88 9.5 20 33 1018.4 0 20.0 25.6 39.5 103.6 98.3 338.5
Jarrahwood 05/09 09:00 14.5 78 9.7 10.7 7 1013.1 0.2 21.9 27.5 43.9 115.4 112.2 386.8
Jurien Bay 05/09 09:00 15.5 74 9.78 11 15 1020.1 0 22.0 27.6 44.0 115.6 112.4 387.8
Kalbarri 05/09 09:00 16.2 61 8.41 8.8 4 1020.9 0 19.1 25.2 38.2 100.1 93.6 321.9
Kalgoorlie-Boulder 05/09 10:50 18.7 43 6.88 5.9 11 20 1020.2 0 15.7 22.2 31.4 82.1 72.3 247.5
Kalumburu 05/09 12:20 34.3 29 11.06 13.7 7 11 1015.9 0 23.7 24.0 38.9 102.4 102.2 354.2
Karijini North 05/09 10:50 28.4 17 4.73 1 22 30 1017.4 0 10.9 17.3 21.5 55.7 42.8 145.0
Karnet 05/09 09:00 12.3 86 9.34 10 2 1013.1 0.1 21.3 27.6 43.6 114.7 110.4 380.4
Karratha 05/09 10:50 31.9 16 5.37 3 13 17 1016.9 0 12.1 17.4 22.4 58.2 47.0 159.9
Katanning Rs 05/09 10:50 14.1 65 7.89 7.6 17 26 1017.8 0 18.1 24.8 37.0 97.0 89.1 306.1
Koolan Island / Koolan Central 05/09 10:50 27.2 57 14.83 17.9 9 15 1013.1 0 32.0 31.7 56.9 150.2 159.1 552.4
Kununurra Airport 05/09 12:20 34.6 31 12.01 15 11 17 1015.3 0 25.6 25.2 41.9 110.5 112.2 389.4
Lake Grace 05/09 10:50 12 70 7.46 6.7 13 17 1019.7 0 17.2 24.8 36.4 95.3 86.1 295.0
Lancelin (Defence) 05/09 10:50 17.8 62 9.41 10.4 17 26 1018.7 0 21.1 26.2 41.2 108.2 104.2 359.4
Laverton 05/09 10:50 20.3 40 7.03 6.3 15 20 1020.7 0 16.0 22.1 31.4 82.0 72.6 248.8
Learmonth 05/09 10:50 25.5 41 9.71 11.3 19 24 1020.2 0 21.3 24.6 38.6 101.3 98.2 339.2
Legendre Island 05/09 10:50 29.1 23 6.64 5.9 9 11 1017.4 0 14.8 19.5 26.9 70.2 61.1 209.2
Leinster 05/09 10:50 21.2 32 5.93 3.9 19 32 1019 0 13.6 20.3 27.3 71.0 59.5 202.8
Leonora Airport 05/09 10:50 19.7 39 6.62 5.4 11 24 1020.2 0 15.1 21.6 30.2 78.7 68.4 234.0
Lombadina 05/09 10:50 29.2 57 16.55 19.8 15 19 1013.1 0 35.4 33.8 62.5 165.1 178.0 618.5
Mandora 05/09 10:50 31.9 37 12.43 15.4 11 19 1016.4 0 26.6 26.6 44.9 118.3 121.1 419.9
Mandurah 05/09 10:50 14.9 87 11.09 12.8 15 22 1017.9 1.2 24.9 29.9 49.8 131.1 131.4 453.8
Manjimup 05/09 10:50 14.9 70 8.92 9.5 20 33 1015.8 0 20.2 26.2 40.6 106.7 101.4 349.2
Marble Bar 05/09 10:50 31.9 17 5.71 3.8 15 26 1016.8 0 12.8 17.8 23.4 60.7 50.1 171.0
Mardie 05/09 10:50 30.8 19 6.02 4.5 6 11 1017.6 0 13.5 18.4 24.6 64.0 53.8 183.8
Meekatharra 05/09 10:50 21.7 36 6.87 6 13 24 1019.3 0 15.6 21.5 30.3 79.0 69.5 238.0
Millendon (Swan Valley) 05/09 10:50 17.7 58 8.75 9.3 15 24 1018.7 0 19.7 25.2 38.7 101.5 95.9 330.3
Morawa Airport 05/09 10:50 19.1 50 8.2 8.4 17 30 1020 0 18.5 24.0 36.0 94.4 87.6 301.2
Mount Keith 05/09 10:50 21 33 6.04 4.1 17 24 1013.1 0 13.9 20.3 27.5 71.7 60.5 206.5
Mount Magnet Airport 05/09 10:50 19.8 36 6.15 4.3 19 26 1019.4 0 14.2 20.9 28.5 74.3 63.0 215.0
Mullewa 05/09 09:00 14.9 69 8.79 9.3 6 1013.1 0 19.9 25.9 40.0 105.0 99.5 342.4
Munglinup West 05/09 10:50 15.9 50 6.77 5.5 20 32 1019.4 0 15.6 22.7 32.1 83.9 73.5 251.3
Murchison 05/09 09:00 16.1 74 10.14 11.5 9 1020.6 0 22.7 28.0 45.2 118.7 116.5 402.0
Narrogin 05/09 09:00 13.5 72 8.42 8.6 11 1013.1 0 19.2 25.7 39.2 102.9 96.4 331.4
Newdegate 05/09 10:50 11.7 70 7.32 6.4 17 24 1019.7 0 16.9 24.7 36.0 94.1 84.6 289.7
Newman Airport 05/09 10:50 26.4 21 5.23 2.3 24 35 1018.1 0 12.0 18.3 23.5 61.0 48.8 165.8
Norseman Airport 05/09 10:50 16.4 53 7.4 6.8 19 28 1020.1 0 16.9 23.6 34.3 89.6 80.7 276.7
North Island 05/09 10:50 21.4 53 9.94 11.4 15 20 1020 0 22.0 26.1 41.5 108.9 106.3 366.9
Northam 05/09 09:00 15.3 43 5.62 3 15 1013.1 0 13.2 21.0 28.0 72.9 60.0 204.2
Onslow Airport 05/09 10:50 27.8 35 9.41 10.9 17 22 1019.4 0 20.6 23.5 36.5 95.7 92.0 317.6
Paraburdoo 05/09 10:50 28.2 17 4.67 0.9 19 30 1017.2 0 10.8 17.3 21.4 55.3 42.4 143.3
Pardoo 05/09 09:00 26.5 71 17.77 20.9 4 1017.5 0 38.2 37.3 70.3 185.9 202.6 703.8
Paynes Find 05/09 09:00 16.3 59 8.19 8.4 2 1020.2 0 18.6 24.8 37.3 97.7 90.6 311.5
Pearce 05/09 10:50 17.1 54 7.86 7.7 24 33 1018.6 0 17.9 24.0 35.6 93.2 85.5 293.7
Perth 05/09 10:50 17.5 59 8.8 9.4 13 26 1018.5 0 19.8 25.3 39.0 102.3 96.8 333.3
Perth Airport 05/09 10:50 17.1 59 8.59 9 19 24 1018.3 0 19.4 25.1 38.4 100.6 94.6 325.6
Port Hedland 05/09 10:50 27.4 61 16.05 19.2 20 26 1016.8 0 34.5 33.8 62.0 163.8 175.8 610.4
Portable Btsa (Dfes) 05/09 10:40 21.1 47 8.66 9.5 9 13 1013.1 0 19.4 24.0 36.6 95.9 90.4 311.3
Portable Btsd (Dfes) 05/09 10:40 16.5 48 6.74 5.5 19 24 1013.1 0 15.5 22.3 31.5 82.4 72.2 246.9
Portable Btsf (Dfes) 05/09 10:00 20.7 34 6.12 4.5 24 30 1013.1 0 14.1 20.5 27.9 72.7 61.6 210.3
Portable Btsh (Dfes) 05/09 10:40 19.4 44 7.34 6.9 6 9 1013.1 0 16.7 22.5 32.5 85.1 76.5 262.6
Portable Btsj (Dfes) 05/09 10:40 17 68 9.84 11.1 22 30 1013.1 0.2 22.1 26.9 43.1 113.3 110.5 381.1
Portable Btsl (Dfes) 05/09 10:40 17.5 42 6.26 4.6 17 20 1013.1 0 14.5 21.4 29.5 76.9 65.7 224.3
Portable Btsm (Dfes) 05/09 10:40 24.6 27 6.08 4.4 11 17 1013.1 0 13.8 19.6 26.5 69.0 58.3 199.2
Portable Btsn (Dfes) 05/09 10:40 20.1 36 6.26 4.5 11 13 1013.1 0 14.4 20.8 28.5 74.5 63.6 217.3
Portable Btso (Dfes) 05/09 10:40 15.7 67 8.96 9.6 13 19 1013.1 0 20.3 25.9 40.3 105.7 100.7 346.7
Rocky Gully South 05/09 10:50 15 65 8.33 8.5 17 28 1013.1 0 19.0 25.1 38.1 100.0 93.4 321.1
Roebourne Airport 05/09 10:50 33.3 16 5.79 4.1 11 17 1016.9 0 13.0 17.7 23.2 60.4 50.0 170.9
Rottnest Island 05/09 10:50 16.4 69 9.63 10.7 37 46 1017.6 0 21.6 27.0 42.8 112.4 108.9 375.6
Salmon Gums Rs 05/09 10:50 15.7 54 7.22 6.4 13 26 1013.1 0 16.6 23.2 33.6 87.9 78.7 269.7
Shannon 05/09 10:50 15.1 71 9.16 9.9 22 35 1013.1 0 20.7 26.4 41.4 108.7 104.1 358.6
Shark Bay Airport 05/09 10:50 22.6 49 9.84 11.4 9 15 1020.9 0 21.8 25.6 40.5 106.4 103.5 357.4
Solomon Airport 05/09 10:50 28.1 19 5.2 2.3 22 33 1016.4 0 11.9 17.9 22.9 59.4 47.4 161.2
Southern Cross Airport 05/09 10:50 17 54 7.81 7.6 20 33 1020.3 0 17.8 24.0 35.5 93.0 85.1 292.3
Swanbourne 05/09 10:50 17.4 90 13.34 15.7 13 22 1013.1 0 29.5 32.8 57.7 152.3 158.6 549.4
Telfer 05/09 10:50 30.5 20 6.23 5 26 37 1017.2 0 13.9 18.7 25.3 65.8 56.0 191.6
Thevenard Island 05/09 10:50 25.3 59 13.81 16.7 19 24 1019.5 0 29.9 31.0 54.4 143.5 150.0 520.3
Troughton Island 05/09 12:20 30 66 20.02 22.9 17 20 1017.1 0 42.5 39.7 77.1 204.0 225.8 784.9
Truscott 05/09 12:20 32.5 38 13.18 16.3 11 15 1016 0 28.1 27.5 47.2 124.5 128.9 447.5
Walpole North 05/09 10:50 16.5 68 9.55 10.6 17 28 1014.9 0 21.5 26.7 42.3 111.1 107.5 370.7
Wandering 05/09 10:50 14.6 72 9.01 9.6 17 30 1013.1 0 20.4 26.3 41.0 107.8 102.8 353.9
Warburton 05/09 12:20 24 26 5.66 3.3 17 26 1019.9 0 13.0 19.4 25.6 66.5 54.7 186.4
West Angelas 05/09 10:50 25.9 21 5.08 1.9 20 32 1017.3 0 11.7 18.2 23.2 60.1 47.6 161.4
West Musgrave Airport 05/09 10:50 24.3 24 5.31 2.5 20 26 1013.1 0 12.3 18.7 24.2 62.8 50.6 172.0
Wiluna Airport 05/09 10:50 22.8 30 6.1 4.3 20 26 1019.3 0 13.9 20.2 27.3 71.2 60.2 205.4
Windy Harbour 05/09 09:00 15.5 65 8.59 9.1 9 1016 0 19.5 25.5 39.0 102.4 96.4 331.6
Witchcliffe West 05/09 10:50 14.1 92 11.17 12.8 28 46 1015.7 0.8 25.1 30.2 50.5 133.1 133.7 461.8
Wongan Hills 05/09 09:00 13.8 69 8.22 8.3 9 1020.8 0 18.8 25.6 38.6 101.2 94.0 323.0
Wyndham Airport 05/09 12:20 35 28 11.07 13.8 15 24 1015.3 0 23.7 23.8 38.6 101.6 101.4 351.4
Yampi Sound (Defence) 05/09 10:50 33.3 31 11.22 13.9 6 11 1020.1 0 24.0 24.6 40.1 105.5 105.6 365.9
York 05/09 09:00 12 97 10.34 11.6 0 1020.6 0 23.4 29.7 48.5 127.5 125.8 433.9

Last Refresh: 05-Sep-2026 12:32:14

Bureau of Meteorology